sensor_id;sensor_type;location;lat;lon;timestamp;temperature;humidity
63371;DHT22;72561;48.336;14.472;2023-09-12T00:00:17;26.60;61.60
63371;DHT22;72561;48.336;14.472;2023-09-12T00:03:38;26.60;61.70
63371;DHT22;72561;48.336;14.472;2023-09-12T00:07:00;26.60;61.70
63371;DHT22;72561;48.336;14.472;2023-09-12T00:10:21;26.60;61.70
63371;DHT22;72561;48.336;14.472;2023-09-12T00:13:42;26.50;61.60
63371;DHT22;72561;48.336;14.472;2023-09-12T00:17:03;26.60;61.70
63371;DHT22;72561;48.336;14.472;2023-09-12T00:20:24;26.60;61.70
63371;DHT22;72561;48.336;14.472;2023-09-12T00:23:46;26.50;61.60
63371;DHT22;72561;48.336;14.472;2023-09-12T00:27:07;26.60;61.70
63371;DHT22;72561;48.336;14.472;2023-09-12T00:30:28;26.60;61.70
63371;DHT22;72561;48.336;14.472;2023-09-12T00:33:49;26.50;61.70
63371;DHT22;72561;48.336;14.472;2023-09-12T00:39:16;26.50;61.10
63371;DHT22;72561;48.336;14.472;2023-09-12T00:42:38;26.50;61.70
63371;DHT22;72561;48.336;14.472;2023-09-12T00:45:58;26.50;61.70
63371;DHT22;72561;48.336;14.472;2023-09-12T00:49:20;26.50;61.70
63371;DHT22;72561;48.336;14.472;2023-09-12T00:58:34;26.50;61.20
63371;DHT22;72561;48.336;14.472;2023-09-12T01:01:55;26.50;61.70
63371;DHT22;72561;48.336;14.472;2023-09-12T01:07:38;26.50;61.20
63371;DHT22;72561;48.336;14.472;2023-09-12T01:10:59;26.50;61.80
63371;DHT22;72561;48.336;14.472;2023-09-12T01:14:21;26.50;61.80
63371;DHT22;72561;48.336;14.472;2023-09-12T01:19:23;26.50;61.20
63371;DHT22;72561;48.336;14.472;2023-09-12T01:24:04;26.40;61.20
63371;DHT22;72561;48.336;14.472;2023-09-12T01:27:37;26.40;61.80
63371;DHT22;72561;48.336;14.472;2023-09-12T01:31:00;26.40;61.80
63371;DHT22;72561;48.336;14.472;2023-09-12T01:34:21;26.40;61.80
63371;DHT22;72561;48.336;14.472;2023-09-12T01:37:42;26.40;61.80
63371;DHT22;72561;48.336;14.472;2023-09-12T01:41:04;26.40;61.80
63371;DHT22;72561;48.336;14.472;2023-09-12T01:44:27;26.40;61.80
63371;DHT22;72561;48.336;14.472;2023-09-12T01:47:50;26.40;61.80
63371;DHT22;72561;48.336;14.472;2023-09-12T01:51:11;26.50;61.90
63371;DHT22;72561;48.336;14.472;2023-09-12T01:54:34;26.40;61.80
63371;DHT22;72561;48.336;14.472;2023-09-12T01:57:55;26.40;61.80
63371;DHT22;72561;48.336;14.472;2023-09-12T02:01:18;26.40;61.80
63371;DHT22;72561;48.336;14.472;2023-09-12T02:04:39;26.40;61.80
63371;DHT22;72561;48.336;14.472;2023-09-12T02:08:00;26.40;61.80
63371;DHT22;72561;48.336;14.472;2023-09-12T02:11:20;26.40;61.80
63371;DHT22;72561;48.336;14.472;2023-09-12T02:14:42;26.40;61.80
63371;DHT22;72561;48.336;14.472;2023-09-12T02:18:04;26.40;61.80
63371;DHT22;72561;48.336;14.472;2023-09-12T02:24:01;26.40;61.30
63371;DHT22;72561;48.336;14.472;2023-09-12T02:27:22;26.40;61.80
63371;DHT22;72561;48.336;14.472;2023-09-12T02:32:35;26.40;61.30
63371;DHT22;72561;48.336;14.472;2023-09-12T02:35:56;26.40;61.80
63371;DHT22;72561;48.336;14.472;2023-09-12T02:39:17;26.40;61.80
63371;DHT22;72561;48.336;14.472;2023-09-12T02:44:46;26.40;61.30
63371;DHT22;72561;48.336;14.472;2023-09-12T02:48:07;26.40;61.90
63371;DHT22;72561;48.336;14.472;2023-09-12T02:51:28;26.30;61.80
63371;DHT22;72561;48.336;14.472;2023-09-12T02:55:57;26.40;61.40
63371;DHT22;72561;48.336;14.472;2023-09-12T02:59:18;26.40;61.90
63371;DHT22;72561;48.336;14.472;2023-09-12T03:02:39;26.40;61.90
63371;DHT22;72561;48.336;14.472;2023-09-12T03:06:00;26.40;62.00
63371;DHT22;72561;48.336;14.472;2023-09-12T03:10:42;26.30;61.30
63371;DHT22;72561;48.336;14.472;2023-09-12T03:15:12;26.40;61.40
63371;DHT22;72561;48.336;14.472;2023-09-12T03:18:33;26.30;61.90
63371;DHT22;72561;48.336;14.472;2023-09-12T03:21:54;26.30;61.90
63371;DHT22;72561;48.336;14.472;2023-09-12T03:25:15;26.40;62.10
63371;DHT22;72561;48.336;14.472;2023-09-12T03:28:36;26.30;62.00
63371;DHT22;72561;48.336;14.472;2023-09-12T03:31:58;26.30;62.00
63371;DHT22;72561;48.336;14.472;2023-09-12T03:35:19;26.30;61.90
63371;DHT22;72561;48.336;14.472;2023-09-12T03:38:40;26.30;62.00
63371;DHT22;72561;48.336;14.472;2023-09-12T03:42:02;26.30;61.90
63371;DHT22;72561;48.336;14.472;2023-09-12T03:45:23;26.30;62.00
63371;DHT22;72561;48.336;14.472;2023-09-12T03:48:45;26.30;62.00
63371;DHT22;72561;48.336;14.472;2023-09-12T03:52:06;26.30;62.10
63371;DHT22;72561;48.336;14.472;2023-09-12T03:55:28;26.30;62.10
63371;DHT22;72561;48.336;14.472;2023-09-12T03:58:49;26.30;61.90
63371;DHT22;72561;48.336;14.472;2023-09-12T04:02:09;26.30;61.70
63371;DHT22;72561;48.336;14.472;2023-09-12T04:05:32;26.30;61.50
63371;DHT22;72561;48.336;14.472;2023-09-12T04:10:14;26.30;61.00
63371;DHT22;72561;48.336;14.472;2023-09-12T04:13:36;26.30;61.80
63371;DHT22;72561;48.336;14.472;2023-09-12T04:16:57;26.30;61.00
63371;DHT22;72561;48.336;14.472;2023-09-12T04:20:18;26.30;60.70
63371;DHT22;72561;48.336;14.472;2023-09-12T04:24:21;26.30;60.30
63371;DHT22;72561;48.336;14.472;2023-09-12T04:27:42;26.30;60.30
63371;DHT22;72561;48.336;14.472;2023-09-12T04:31:04;26.30;60.10
63371;DHT22;72561;48.336;14.472;2023-09-12T04:34:26;26.30;60.10
63371;DHT22;72561;48.336;14.472;2023-09-12T04:37:47;26.30;60.00
63371;DHT22;72561;48.336;14.472;2023-09-12T04:41:12;26.30;60.10
63371;DHT22;72561;48.336;14.472;2023-09-12T04:44:34;26.20;60.10
63371;DHT22;72561;48.336;14.472;2023-09-12T04:48:42;26.30;59.80
63371;DHT22;72561;48.336;14.472;2023-09-12T04:52:04;26.20;60.30
63371;DHT22;72561;48.336;14.472;2023-09-12T04:55:25;26.20;60.30
63371;DHT22;72561;48.336;14.472;2023-09-12T04:58:46;26.30;60.40
63371;DHT22;72561;48.336;14.472;2023-09-12T05:02:07;26.30;60.40
63371;DHT22;72561;48.336;14.472;2023-09-12T05:05:30;26.20;60.30
63371;DHT22;72561;48.336;14.472;2023-09-12T05:08:51;26.30;60.40
63371;DHT22;72561;48.336;14.472;2023-09-12T05:12:12;26.20;60.40
63371;DHT22;72561;48.336;14.472;2023-09-12T05:15:33;26.30;60.40
63371;DHT22;72561;48.336;14.472;2023-09-12T05:18:54;26.20;60.20
63371;DHT22;72561;48.336;14.472;2023-09-12T05:22:16;26.20;60.20
63371;DHT22;72561;48.336;14.472;2023-09-12T05:25:37;26.20;60.20
63371;DHT22;72561;48.336;14.472;2023-09-12T05:28:58;26.20;60.20
63371;DHT22;72561;48.336;14.472;2023-09-12T05:32:19;26.20;60.30
63371;DHT22;72561;48.336;14.472;2023-09-12T05:35:40;26.20;60.30
63371;DHT22;72561;48.336;14.472;2023-09-12T05:39:02;26.20;60.30
63371;DHT22;72561;48.336;14.472;2023-09-12T05:42:23;26.20;60.30
63371;DHT22;72561;48.336;14.472;2023-09-12T05:45:44;26.20;60.30
63371;DHT22;72561;48.336;14.472;2023-09-12T05:49:05;26.20;60.30
63371;DHT22;72561;48.336;14.472;2023-09-12T05:52:27;26.20;60.40
63371;DHT22;72561;48.336;14.472;2023-09-12T05:55:49;26.20;60.30
63371;DHT22;72561;48.336;14.472;2023-09-12T05:59:10;26.20;60.30
63371;DHT22;72561;48.336;14.472;2023-09-12T06:02:31;26.20;60.40
63371;DHT22;72561;48.336;14.472;2023-09-12T06:05:52;26.20;60.40
63371;DHT22;72561;48.336;14.472;2023-09-12T06:09:13;26.20;60.40
63371;DHT22;72561;48.336;14.472;2023-09-12T06:12:35;26.20;60.40
63371;DHT22;72561;48.336;14.472;2023-09-12T06:15:56;26.10;60.40
63371;DHT22;72561;48.336;14.472;2023-09-12T06:19:17;26.10;60.40
63371;DHT22;72561;48.336;14.472;2023-09-12T06:22:38;26.20;60.40
63371;DHT22;72561;48.336;14.472;2023-09-12T06:25:59;26.10;60.40
63371;DHT22;72561;48.336;14.472;2023-09-12T06:29:22;26.10;60.40
63371;DHT22;72561;48.336;14.472;2023-09-12T06:32:43;26.20;60.50
63371;DHT22;72561;48.336;14.472;2023-09-12T06:36:04;26.10;60.50
63371;DHT22;72561;48.336;14.472;2023-09-12T06:39:26;26.20;60.50
63371;DHT22;72561;48.336;14.472;2023-09-12T06:42:47;26.10;60.50
63371;DHT22;72561;48.336;14.472;2023-09-12T06:46:09;26.20;60.60
63371;DHT22;72561;48.336;14.472;2023-09-12T06:49:30;26.20;60.60
63371;DHT22;72561;48.336;14.472;2023-09-12T06:52:51;26.20;60.60
63371;DHT22;72561;48.336;14.472;2023-09-12T06:56:12;26.10;60.60
63371;DHT22;72561;48.336;14.472;2023-09-12T06:59:33;26.20;60.60
63371;DHT22;72561;48.336;14.472;2023-09-12T07:02:55;26.20;60.60
63371;DHT22;72561;48.336;14.472;2023-09-12T07:06:16;26.20;60.60
63371;DHT22;72561;48.336;14.472;2023-09-12T07:09:37;26.20;60.60
63371;DHT22;72561;48.336;14.472;2023-09-12T07:12:58;26.20;60.60
63371;DHT22;72561;48.336;14.472;2023-09-12T07:16:19;26.20;60.60
63371;DHT22;72561;48.336;14.472;2023-09-12T07:19:41;26.20;60.70
63371;DHT22;72561;48.336;14.472;2023-09-12T07:23:03;26.20;60.70
63371;DHT22;72561;48.336;14.472;2023-09-12T07:26:24;26.20;60.70
63371;DHT22;72561;48.336;14.472;2023-09-12T07:29:45;26.10;60.70
63371;DHT22;72561;48.336;14.472;2023-09-12T07:33:06;26.20;60.80
63371;DHT22;72561;48.336;14.472;2023-09-12T07:36:28;26.30;60.90
63371;DHT22;72561;48.336;14.472;2023-09-12T07:39:49;26.20;60.80
63371;DHT22;72561;48.336;14.472;2023-09-12T07:43:10;26.20;60.80
63371;DHT22;72561;48.336;14.472;2023-09-12T07:46:31;26.20;60.90
63371;DHT22;72561;48.336;14.472;2023-09-12T07:49:53;26.30;61.00
63371;DHT22;72561;48.336;14.472;2023-09-12T07:53:16;26.30;61.00
63371;DHT22;72561;48.336;14.472;2023-09-12T07:56:37;26.20;61.00
63371;DHT22;72561;48.336;14.472;2023-09-12T07:59:58;26.30;61.20
63371;DHT22;72561;48.336;14.472;2023-09-12T08:03:19;26.30;61.20
63371;DHT22;72561;48.336;14.472;2023-09-12T08:06:40;26.30;61.20
63371;DHT22;72561;48.336;14.472;2023-09-12T08:10:02;26.30;61.30
63371;DHT22;72561;48.336;14.472;2023-09-12T08:13:26;26.30;61.30
63371;DHT22;72561;48.336;14.472;2023-09-12T08:16:47;26.30;61.30
63371;DHT22;72561;48.336;14.472;2023-09-12T08:23:15;26.30;60.80
63371;DHT22;72561;48.336;14.472;2023-09-12T08:26:36;26.30;61.40
63371;DHT22;72561;48.336;14.472;2023-09-12T08:29:57;26.40;61.50
63371;DHT22;72561;48.336;14.472;2023-09-12T08:33:18;26.40;61.60
63371;DHT22;72561;48.336;14.472;2023-09-12T08:36:39;26.40;61.60
63371;DHT22;72561;48.336;14.472;2023-09-12T08:40:34;26.40;61.10
63371;DHT22;72561;48.336;14.472;2023-09-12T08:43:56;26.40;61.70
63371;DHT22;72561;48.336;14.472;2023-09-12T08:47:19;26.40;61.70
63371;DHT22;72561;48.336;14.472;2023-09-12T08:50:44;26.50;61.80
63371;DHT22;72561;48.336;14.472;2023-09-12T08:54:07;26.50;61.80
63371;DHT22;72561;48.336;14.472;2023-09-12T08:57:30;26.50;61.80
63371;DHT22;72561;48.336;14.472;2023-09-12T09:00:53;26.50;61.80
63371;DHT22;72561;48.336;14.472;2023-09-12T09:04:14;26.60;61.90
63371;DHT22;72561;48.336;14.472;2023-09-12T09:07:36;26.60;61.90
63371;DHT22;72561;48.336;14.472;2023-09-12T09:10:58;26.60;61.90
63371;DHT22;72561;48.336;14.472;2023-09-12T09:14:21;26.60;61.90
63371;DHT22;72561;48.336;14.472;2023-09-12T09:18:58;26.60;61.30
63371;DHT22;72561;48.336;14.472;2023-09-12T09:22:20;26.70;62.00
63371;DHT22;72561;48.336;14.472;2023-09-12T09:25:42;26.70;62.00
63371;DHT22;72561;48.336;14.472;2023-09-12T09:29:05;26.70;62.00
63371;DHT22;72561;48.336;14.472;2023-09-12T09:32:27;26.70;62.00
63371;DHT22;72561;48.336;14.472;2023-09-12T09:35:49;26.70;62.00
63371;DHT22;72561;48.336;14.472;2023-09-12T09:39:11;26.80;62.00
63371;DHT22;72561;48.336;14.472;2023-09-12T09:42:33;26.80;62.00
63371;DHT22;72561;48.336;14.472;2023-09-12T09:45:54;26.80;62.00
63371;DHT22;72561;48.336;14.472;2023-09-12T09:49:15;26.80;62.00
63371;DHT22;72561;48.336;14.472;2023-09-12T09:52:38;26.80;62.00
63371;DHT22;72561;48.336;14.472;2023-09-12T09:56:09;26.80;62.00
63371;DHT22;72561;48.336;14.472;2023-09-12T09:59:31;26.90;62.00
63371;DHT22;72561;48.336;14.472;2023-09-12T10:02:52;26.90;62.00
63371;DHT22;72561;48.336;14.472;2023-09-12T10:06:13;26.90;62.00
63371;DHT22;72561;48.336;14.472;2023-09-12T10:09:37;26.90;62.00
63371;DHT22;72561;48.336;14.472;2023-09-12T10:12:59;26.90;62.00
63371;DHT22;72561;48.336;14.472;2023-09-12T10:16:23;27.00;62.10
63371;DHT22;72561;48.336;14.472;2023-09-12T10:19:51;27.00;62.00
63371;DHT22;72561;48.336;14.472;2023-09-12T10:23:20;27.00;62.00
63371;DHT22;72561;48.336;14.472;2023-09-12T10:26:46;27.10;62.10
63371;DHT22;72561;48.336;14.472;2023-09-12T10:30:09;27.10;62.00
63371;DHT22;72561;48.336;14.472;2023-09-12T10:33:31;27.10;62.00
63371;DHT22;72561;48.336;14.472;2023-09-12T10:36:52;27.10;62.00
63371;DHT22;72561;48.336;14.472;2023-09-12T10:40:17;27.20;62.10
63371;DHT22;72561;48.336;14.472;2023-09-12T10:43:40;27.20;62.00
63371;DHT22;72561;48.336;14.472;2023-09-12T10:47:04;27.20;62.00
63371;DHT22;72561;48.336;14.472;2023-09-12T10:50:26;27.20;62.00
63371;DHT22;72561;48.336;14.472;2023-09-12T10:53:49;27.20;61.90
63371;DHT22;72561;48.336;14.472;2023-09-12T10:57:11;27.30;62.00
63371;DHT22;72561;48.336;14.472;2023-09-12T11:00:40;27.30;62.00
63371;DHT22;72561;48.336;14.472;2023-09-12T11:04:30;27.30;61.90
63371;DHT22;72561;48.336;14.472;2023-09-12T11:07:56;27.30;61.90
63371;DHT22;72561;48.336;14.472;2023-09-12T11:14:06;27.40;61.50
63371;DHT22;72561;48.336;14.472;2023-09-12T11:17:27;27.40;61.90
63371;DHT22;72561;48.336;14.472;2023-09-12T11:20:53;27.40;61.80
63371;DHT22;72561;48.336;14.472;2023-09-12T11:24:23;27.50;61.90
63371;DHT22;72561;48.336;14.472;2023-09-12T11:27:46;27.50;61.90
63371;DHT22;72561;48.336;14.472;2023-09-12T11:31:28;27.50;61.80
63371;DHT22;72561;48.336;14.472;2023-09-12T11:34:49;27.50;61.80
63371;DHT22;72561;48.336;14.472;2023-09-12T11:38:11;27.50;61.80
63371;DHT22;72561;48.336;14.472;2023-09-12T11:41:42;27.50;61.80
63371;DHT22;72561;48.336;14.472;2023-09-12T11:45:08;27.50;61.70
63371;DHT22;72561;48.336;14.472;2023-09-12T11:48:31;27.60;61.80
63371;DHT22;72561;48.336;14.472;2023-09-12T11:51:54;27.50;61.60
63371;DHT22;72561;48.336;14.472;2023-09-12T11:55:23;27.60;61.70
63371;DHT22;72561;48.336;14.472;2023-09-12T11:58:46;27.60;61.70
63371;DHT22;72561;48.336;14.472;2023-09-12T12:02:09;27.60;61.70
63371;DHT22;72561;48.336;14.472;2023-09-12T12:05:34;27.60;61.70
63371;DHT22;72561;48.336;14.472;2023-09-12T12:08:55;27.60;61.70
63371;DHT22;72561;48.336;14.472;2023-09-12T12:12:17;27.70;61.70
63371;DHT22;72561;48.336;14.472;2023-09-12T12:15:38;27.70;61.70
63371;DHT22;72561;48.336;14.472;2023-09-12T12:18:59;27.70;61.70
63371;DHT22;72561;48.336;14.472;2023-09-12T12:22:21;27.70;61.70
63371;DHT22;72561;48.336;14.472;2023-09-12T12:25:42;27.70;61.60
63371;DHT22;72561;48.336;14.472;2023-09-12T12:29:04;27.70;61.50
63371;DHT22;72561;48.336;14.472;2023-09-12T12:32:25;27.70;61.50
63371;DHT22;72561;48.336;14.472;2023-09-12T12:35:46;27.70;61.50
63371;DHT22;72561;48.336;14.472;2023-09-12T12:39:10;27.70;61.40
63371;DHT22;72561;48.336;14.472;2023-09-12T12:42:38;27.70;61.40
63371;DHT22;72561;48.336;14.472;2023-09-12T12:46:00;27.70;61.40
63371;DHT22;72561;48.336;14.472;2023-09-12T12:49:22;27.70;61.40
63371;DHT22;72561;48.336;14.472;2023-09-12T12:52:46;27.70;61.40
63371;DHT22;72561;48.336;14.472;2023-09-12T12:56:09;27.70;61.40
63371;DHT22;72561;48.336;14.472;2023-09-12T12:59:32;27.70;61.50
63371;DHT22;72561;48.336;14.472;2023-09-12T13:02:53;27.70;61.40
63371;DHT22;72561;48.336;14.472;2023-09-12T13:06:14;27.70;61.40
63371;DHT22;72561;48.336;14.472;2023-09-12T13:09:36;27.70;61.40
63371;DHT22;72561;48.336;14.472;2023-09-12T13:13:06;27.70;61.40
63371;DHT22;72561;48.336;14.472;2023-09-12T13:16:35;27.70;61.40
63371;DHT22;72561;48.336;14.472;2023-09-12T13:19:59;27.70;61.50
63371;DHT22;72561;48.336;14.472;2023-09-12T13:23:25;27.70;61.50
63371;DHT22;72561;48.336;14.472;2023-09-12T13:26:49;27.60;61.40
63371;DHT22;72561;48.336;14.472;2023-09-12T13:30:19;27.70;61.50
63371;DHT22;72561;48.336;14.472;2023-09-12T13:33:45;27.70;61.50
63371;DHT22;72561;48.336;14.472;2023-09-12T13:37:07;27.70;61.50
63371;DHT22;72561;48.336;14.472;2023-09-12T13:40:32;27.70;61.50
63371;DHT22;72561;48.336;14.472;2023-09-12T13:43:53;27.70;61.50
63371;DHT22;72561;48.336;14.472;2023-09-12T13:47:26;27.70;61.50
63371;DHT22;72561;48.336;14.472;2023-09-12T13:50:51;27.70;61.50
63371;DHT22;72561;48.336;14.472;2023-09-12T13:54:17;27.70;61.50
63371;DHT22;72561;48.336;14.472;2023-09-12T13:57:44;27.70;61.50
63371;DHT22;72561;48.336;14.472;2023-09-12T14:01:05;27.70;61.50
63371;DHT22;72561;48.336;14.472;2023-09-12T14:04:27;27.70;61.50
63371;DHT22;72561;48.336;14.472;2023-09-12T14:07:51;27.70;61.50
63371;DHT22;72561;48.336;14.472;2023-09-12T14:11:14;27.70;61.50
63371;DHT22;72561;48.336;14.472;2023-09-12T14:14:37;27.70;61.60
63371;DHT22;72561;48.336;14.472;2023-09-12T14:18:11;27.70;61.60
63371;DHT22;72561;48.336;14.472;2023-09-12T14:23:56;27.70;61.10
63371;DHT22;72561;48.336;14.472;2023-09-12T14:27:17;27.70;61.60
63371;DHT22;72561;48.336;14.472;2023-09-12T14:30:38;27.70;61.60
63371;DHT22;72561;48.336;14.472;2023-09-12T14:33:59;27.70;61.70
63371;DHT22;72561;48.336;14.472;2023-09-12T14:37:21;27.70;61.80
63371;DHT22;72561;48.336;14.472;2023-09-12T14:40:43;27.70;61.70
63371;DHT22;72561;48.336;14.472;2023-09-12T14:44:05;27.70;61.90
63371;DHT22;72561;48.336;14.472;2023-09-12T14:47:26;27.70;61.90
63371;DHT22;72561;48.336;14.472;2023-09-12T14:50:48;27.60;62.00
63371;DHT22;72561;48.336;14.472;2023-09-12T14:54:10;27.70;62.00
63371;DHT22;72561;48.336;14.472;2023-09-12T15:00:19;27.70;61.50
63371;DHT22;72561;48.336;14.472;2023-09-12T15:03:41;27.70;62.10
63371;DHT22;72561;48.336;14.472;2023-09-12T15:07:02;27.70;62.00
63371;DHT22;72561;48.336;14.472;2023-09-12T15:10:24;27.70;62.00
63371;DHT22;72561;48.336;14.472;2023-09-12T15:13:45;27.70;62.00
63371;DHT22;72561;48.336;14.472;2023-09-12T15:17:07;27.70;62.00
63371;DHT22;72561;48.336;14.472;2023-09-12T15:20:28;27.70;62.00
63371;DHT22;72561;48.336;14.472;2023-09-12T15:23:49;27.60;61.90
63371;DHT22;72561;48.336;14.472;2023-09-12T15:27:10;27.70;61.90
63371;DHT22;72561;48.336;14.472;2023-09-12T15:30:31;27.60;61.80
63371;DHT22;72561;48.336;14.472;2023-09-12T15:33:54;27.70;61.90
63371;DHT22;72561;48.336;14.472;2023-09-12T15:37:15;27.70;61.80
63371;DHT22;72561;48.336;14.472;2023-09-12T15:40:36;27.70;61.90
63371;DHT22;72561;48.336;14.472;2023-09-12T15:43:57;27.70;61.90
63371;DHT22;72561;48.336;14.472;2023-09-12T15:47:18;27.70;61.90
63371;DHT22;72561;48.336;14.472;2023-09-12T15:50:41;27.60;61.90
63371;DHT22;72561;48.336;14.472;2023-09-12T15:54:03;27.60;61.80
63371;DHT22;72561;48.336;14.472;2023-09-12T15:57:25;27.60;61.80
63371;DHT22;72561;48.336;14.472;2023-09-12T16:00:46;27.70;61.90
63371;DHT22;72561;48.336;14.472;2023-09-12T16:04:07;27.60;61.80
63371;DHT22;72561;48.336;14.472;2023-09-12T16:07:29;27.60;61.80
63371;DHT22;72561;48.336;14.472;2023-09-12T16:10:50;27.60;61.90
63371;DHT22;72561;48.336;14.472;2023-09-12T16:14:11;27.60;61.90
63371;DHT22;72561;48.336;14.472;2023-09-12T16:17:32;27.60;61.90
63371;DHT22;72561;48.336;14.472;2023-09-12T16:20:53;27.60;61.90
63371;DHT22;72561;48.336;14.472;2023-09-12T16:24:16;27.60;62.00
63371;DHT22;72561;48.336;14.472;2023-09-12T16:27:37;27.60;62.00
63371;DHT22;72561;48.336;14.472;2023-09-12T16:30:58;27.60;62.10
63371;DHT22;72561;48.336;14.472;2023-09-12T16:34:19;27.60;62.10
63371;DHT22;72561;48.336;14.472;2023-09-12T16:37:40;27.60;62.10
63371;DHT22;72561;48.336;14.472;2023-09-12T16:41:03;27.60;62.10
63371;DHT22;72561;48.336;14.472;2023-09-12T16:44:24;27.60;62.10
63371;DHT22;72561;48.336;14.472;2023-09-12T16:47:44;27.60;62.10
63371;DHT22;72561;48.336;14.472;2023-09-12T16:51:05;27.60;62.20
63371;DHT22;72561;48.336;14.472;2023-09-12T16:54:26;27.60;62.20
63371;DHT22;72561;48.336;14.472;2023-09-12T16:57:49;27.60;62.20
63371;DHT22;72561;48.336;14.472;2023-09-12T17:01:10;27.60;62.20
63371;DHT22;72561;48.336;14.472;2023-09-12T17:04:31;27.60;62.20
63371;DHT22;72561;48.336;14.472;2023-09-12T17:07:52;27.70;62.30
63371;DHT22;72561;48.336;14.472;2023-09-12T17:11:13;27.60;62.20
63371;DHT22;72561;48.336;14.472;2023-09-12T17:14:35;27.60;62.10
63371;DHT22;72561;48.336;14.472;2023-09-12T17:17:56;27.60;62.10
63371;DHT22;72561;48.336;14.472;2023-09-12T17:21:17;27.60;62.10
63371;DHT22;72561;48.336;14.472;2023-09-12T17:24:39;27.60;62.20
63371;DHT22;72561;48.336;14.472;2023-09-12T17:28:00;27.60;62.20
63371;DHT22;72561;48.336;14.472;2023-09-12T17:31:22;27.60;62.20
63371;DHT22;72561;48.336;14.472;2023-09-12T17:34:44;27.60;62.20
63371;DHT22;72561;48.336;14.472;2023-09-12T17:38:06;27.60;62.20
63371;DHT22;72561;48.336;14.472;2023-09-12T17:41:27;27.60;62.20
63371;DHT22;72561;48.336;14.472;2023-09-12T17:44:48;27.60;62.20
63371;DHT22;72561;48.336;14.472;2023-09-12T17:48:10;27.60;62.20
63371;DHT22;72561;48.336;14.472;2023-09-12T17:51:31;27.60;62.20
63371;DHT22;72561;48.336;14.472;2023-09-12T17:54:52;27.60;62.20
63371;DHT22;72561;48.336;14.472;2023-09-12T17:58:13;27.60;62.20
63371;DHT22;72561;48.336;14.472;2023-09-12T18:01:35;27.50;62.10
63371;DHT22;72561;48.336;14.472;2023-09-12T18:05:49;27.50;61.60
63371;DHT22;72561;48.336;14.472;2023-09-12T18:10:25;27.50;61.60
63371;DHT22;72561;48.336;14.472;2023-09-12T18:13:46;27.50;62.10
63371;DHT22;72561;48.336;14.472;2023-09-12T18:17:07;27.50;62.00
63371;DHT22;72561;48.336;14.472;2023-09-12T18:20:28;27.50;62.00
63371;DHT22;72561;48.336;14.472;2023-09-12T18:23:53;27.50;62.00
63371;DHT22;72561;48.336;14.472;2023-09-12T18:27:20;27.50;61.90
63371;DHT22;72561;48.336;14.472;2023-09-12T18:32:06;27.50;61.30
63371;DHT22;72561;48.336;14.472;2023-09-12T18:35:28;27.50;61.50
63371;DHT22;72561;48.336;14.472;2023-09-12T18:38:49;27.40;61.30
63371;DHT22;72561;48.336;14.472;2023-09-12T18:42:10;27.50;61.40
63371;DHT22;72561;48.336;14.472;2023-09-12T18:46:07;27.50;61.00
63371;DHT22;72561;48.336;14.472;2023-09-12T18:49:28;27.40;61.40
63371;DHT22;72561;48.336;14.472;2023-09-12T18:52:49;27.40;61.30
63371;DHT22;72561;48.336;14.472;2023-09-12T18:56:10;27.40;61.20
63371;DHT22;72561;48.336;14.472;2023-09-12T18:59:32;27.40;61.00
63371;DHT22;72561;48.336;14.472;2023-09-12T19:02:54;27.40;60.90
63371;DHT22;72561;48.336;14.472;2023-09-12T19:06:15;27.40;60.80
63371;DHT22;72561;48.336;14.472;2023-09-12T19:09:36;27.30;60.70
63371;DHT22;72561;48.336;14.472;2023-09-12T19:12:57;27.30;60.70
63371;DHT22;72561;48.336;14.472;2023-09-12T19:16:18;27.30;60.60
63371;DHT22;72561;48.336;14.472;2023-09-12T19:19:41;27.30;60.50
63371;DHT22;72561;48.336;14.472;2023-09-12T19:23:02;27.30;60.50
63371;DHT22;72561;48.336;14.472;2023-09-12T19:28:05;27.30;60.20
63371;DHT22;72561;48.336;14.472;2023-09-12T19:31:27;27.20;60.40
63371;DHT22;72561;48.336;14.472;2023-09-12T19:34:48;27.20;60.40
63371;DHT22;72561;48.336;14.472;2023-09-12T19:38:09;27.20;60.40
63371;DHT22;72561;48.336;14.472;2023-09-12T19:41:30;27.20;60.40
63371;DHT22;72561;48.336;14.472;2023-09-12T19:44:52;27.20;60.30
63371;DHT22;72561;48.336;14.472;2023-09-12T19:48:13;27.20;60.20
63371;DHT22;72561;48.336;14.472;2023-09-12T19:51:34;27.10;60.10
63371;DHT22;72561;48.336;14.472;2023-09-12T19:54:55;27.10;60.00
63371;DHT22;72561;48.336;14.472;2023-09-12T19:58:16;27.10;60.00
63371;DHT22;72561;48.336;14.472;2023-09-12T20:05:01;27.10;59.60
63371;DHT22;72561;48.336;14.472;2023-09-12T20:08:22;27.10;59.90
63371;DHT22;72561;48.336;14.472;2023-09-12T20:12:54;27.00;59.40
63371;DHT22;72561;48.336;14.472;2023-09-12T20:16:15;27.00;59.70
63371;DHT22;72561;48.336;14.472;2023-09-12T20:19:36;27.00;59.60
63371;DHT22;72561;48.336;14.472;2023-09-12T20:22:57;27.00;59.50
63371;DHT22;72561;48.336;14.472;2023-09-12T20:26:18;27.00;59.50
63371;DHT22;72561;48.336;14.472;2023-09-12T20:29:41;26.90;59.40
63371;DHT22;72561;48.336;14.472;2023-09-12T20:33:03;26.90;59.20
63371;DHT22;72561;48.336;14.472;2023-09-12T20:36:24;26.90;59.20
63371;DHT22;72561;48.336;14.472;2023-09-12T20:39:45;26.90;59.20
63371;DHT22;72561;48.336;14.472;2023-09-12T20:43:06;26.90;59.20
63371;DHT22;72561;48.336;14.472;2023-09-12T20:48:05;26.90;58.90
63371;DHT22;72561;48.336;14.472;2023-09-12T20:51:26;26.90;59.20
63371;DHT22;72561;48.336;14.472;2023-09-12T20:54:47;26.80;59.10
63371;DHT22;72561;48.336;14.472;2023-09-12T20:58:08;26.80;59.00
63371;DHT22;72561;48.336;14.472;2023-09-12T21:01:29;26.80;59.00
63371;DHT22;72561;48.336;14.472;2023-09-12T21:04:52;26.80;58.90
63371;DHT22;72561;48.336;14.472;2023-09-12T21:08:13;26.80;58.80
63371;DHT22;72561;48.336;14.472;2023-09-12T21:11:34;26.80;58.80
63371;DHT22;72561;48.336;14.472;2023-09-12T21:14:55;26.80;58.80
63371;DHT22;72561;48.336;14.472;2023-09-12T21:18:16;26.80;58.70
63371;DHT22;72561;48.336;14.472;2023-09-12T21:21:38;26.70;58.70
63371;DHT22;72561;48.336;14.472;2023-09-12T21:25:00;26.70;58.70
63371;DHT22;72561;48.336;14.472;2023-09-12T21:28:21;26.70;58.70
63371;DHT22;72561;48.336;14.472;2023-09-12T21:31:42;26.70;58.60
63371;DHT22;72561;48.336;14.472;2023-09-12T21:35:35;26.70;58.10
63371;DHT22;72561;48.336;14.472;2023-09-12T21:38:56;26.70;58.50
63371;DHT22;72561;48.336;14.472;2023-09-12T21:42:16;26.70;58.40
63371;DHT22;72561;48.336;14.472;2023-09-12T21:47:09;26.70;58.20